sensor_id;sensor_type;location;lat;lon;timestamp;P1;durP1;ratioP1;P2;durP2;ratioP2
79706;SDS011;69200;53.612;-2.416;2024-03-22T00:01:45;2.23;;;0.70;;
79706;SDS011;69200;53.612;-2.416;2024-03-22T00:04:11;1.85;;;0.63;;
79706;SDS011;69200;53.612;-2.416;2024-03-22T00:06:36;2.47;;;0.70;;
79706;SDS011;69200;53.612;-2.416;2024-03-22T00:09:01;1.73;;;0.73;;
79706;SDS011;69200;53.612;-2.416;2024-03-22T00:11:27;1.63;;;0.50;;
79706;SDS011;69200;53.612;-2.416;2024-03-22T00:13:52;1.23;;;0.57;;
79706;SDS011;69200;53.612;-2.416;2024-03-22T00:16:17;2.50;;;0.50;;
79706;SDS011;69200;53.612;-2.416;2024-03-22T00:18:42;2.30;;;0.53;;
79706;SDS011;69200;53.612;-2.416;2024-03-22T00:21:07;2.00;;;0.40;;
79706;SDS011;69200;53.612;-2.416;2024-03-22T00:23:33;0.43;;;0.23;;
79706;SDS011;69200;53.612;-2.416;2024-03-22T00:25:59;1.30;;;0.30;;
79706;SDS011;69200;53.612;-2.416;2024-03-22T00:28:24;0.47;;;0.15;;
79706;SDS011;69200;53.612;-2.416;2024-03-22T00:30:49;2.37;;;0.40;;
79706;SDS011;69200;53.612;-2.416;2024-03-22T00:33:15;2.17;;;0.40;;
79706;SDS011;69200;53.612;-2.416;2024-03-22T00:35:40;1.93;;;0.60;;
79706;SDS011;69200;53.612;-2.416;2024-03-22T00:38:05;0.67;;;0.20;;
79706;SDS011;69200;53.612;-2.416;2024-03-22T00:40:30;1.60;;;0.40;;
79706;SDS011;69200;53.612;-2.416;2024-03-22T00:42:55;1.13;;;0.30;;
79706;SDS011;69200;53.612;-2.416;2024-03-22T00:45:21;1.80;;;0.50;;
79706;SDS011;69200;53.612;-2.416;2024-03-22T00:47:46;0.97;;;0.30;;
79706;SDS011;69200;53.612;-2.416;2024-03-22T00:50:11;1.30;;;0.40;;
79706;SDS011;69200;53.612;-2.416;2024-03-22T00:52:37;0.73;;;0.30;;
79706;SDS011;69200;53.612;-2.416;2024-03-22T00:55:03;2.33;;;0.50;;
79706;SDS011;69200;53.612;-2.416;2024-03-22T00:57:28;2.72;;;0.50;;
79706;SDS011;69200;53.612;-2.416;2024-03-22T00:59:53;0.63;;;0.20;;
79706;SDS011;69200;53.612;-2.416;2024-03-22T01:02:18;0.73;;;0.33;;
79706;SDS011;69200;53.612;-2.416;2024-03-22T01:04:44;1.90;;;0.70;;
79706;SDS011;69200;53.612;-2.416;2024-03-22T01:07:09;2.33;;;0.47;;
79706;SDS011;69200;53.612;-2.416;2024-03-22T01:09:34;1.58;;;0.50;;
79706;SDS011;69200;53.612;-2.416;2024-03-22T01:12:00;2.37;;;0.70;;
79706;SDS011;69200;53.612;-2.416;2024-03-22T01:14:25;2.08;;;0.63;;
79706;SDS011;69200;53.612;-2.416;2024-03-22T01:16:51;5.15;;;0.60;;
79706;SDS011;69200;53.612;-2.416;2024-03-22T01:19:16;5.63;;;0.90;;
79706;SDS011;69200;53.612;-2.416;2024-03-22T01:21:41;2.63;;;0.53;;
79706;SDS011;69200;53.612;-2.416;2024-03-22T01:24:07;4.40;;;0.80;;
79706;SDS011;69200;53.612;-2.416;2024-03-22T01:26:32;4.87;;;0.93;;
79706;SDS011;69200;53.612;-2.416;2024-03-22T01:28:57;2.07;;;0.60;;
79706;SDS011;69200;53.612;-2.416;2024-03-22T01:31:22;2.87;;;0.70;;
79706;SDS011;69200;53.612;-2.416;2024-03-22T01:33:47;11.43;;;1.10;;
79706;SDS011;69200;53.612;-2.416;2024-03-22T01:36:13;2.73;;;0.70;;
79706;SDS011;69200;53.612;-2.416;2024-03-22T01:38:38;2.53;;;0.68;;
79706;SDS011;69200;53.612;-2.416;2024-03-22T01:41:03;5.90;;;0.87;;
79706;SDS011;69200;53.612;-2.416;2024-03-22T01:43:28;3.22;;;0.98;;
79706;SDS011;69200;53.612;-2.416;2024-03-22T01:45:54;5.00;;;0.90;;
79706;SDS011;69200;53.612;-2.416;2024-03-22T01:48:19;5.73;;;0.90;;
79706;SDS011;69200;53.612;-2.416;2024-03-22T01:50:44;3.40;;;0.73;;
79706;SDS011;69200;53.612;-2.416;2024-03-22T01:53:10;2.57;;;0.60;;
79706;SDS011;69200;53.612;-2.416;2024-03-22T01:55:35;6.20;;;1.00;;
79706;SDS011;69200;53.612;-2.416;2024-03-22T01:58:00;3.73;;;1.37;;
79706;SDS011;69200;53.612;-2.416;2024-03-22T02:00:25;6.43;;;1.00;;
79706;SDS011;69200;53.612;-2.416;2024-03-22T02:02:51;2.77;;;0.70;;
79706;SDS011;69200;53.612;-2.416;2024-03-22T02:05:16;5.57;;;0.93;;
79706;SDS011;69200;53.612;-2.416;2024-03-22T02:07:44;3.10;;;0.75;;
79706;SDS011;69200;53.612;-2.416;2024-03-22T02:10:09;4.83;;;1.10;;
79706;SDS011;69200;53.612;-2.416;2024-03-22T02:12:38;6.53;;;1.13;;
79706;SDS011;69200;53.612;-2.416;2024-03-22T02:15:03;6.65;;;1.02;;
79706;SDS011;69200;53.612;-2.416;2024-03-22T02:17:29;4.30;;;0.98;;
79706;SDS011;69200;53.612;-2.416;2024-03-22T02:19:54;6.43;;;1.00;;
79706;SDS011;69200;53.612;-2.416;2024-03-22T02:22:19;5.80;;;0.83;;
79706;SDS011;69200;53.612;-2.416;2024-03-22T02:24:44;4.07;;;1.00;;
79706;SDS011;69200;53.612;-2.416;2024-03-22T02:27:10;7.90;;;1.63;;
79706;SDS011;69200;53.612;-2.416;2024-03-22T02:29:35;7.13;;;1.17;;
79706;SDS011;69200;53.612;-2.416;2024-03-22T02:32:00;7.33;;;1.60;;
79706;SDS011;69200;53.612;-2.416;2024-03-22T02:34:25;4.13;;;1.47;;
79706;SDS011;69200;53.612;-2.416;2024-03-22T02:36:50;13.83;;;2.00;;
79706;SDS011;69200;53.612;-2.416;2024-03-22T02:39:16;6.20;;;1.30;;
79706;SDS011;69200;53.612;-2.416;2024-03-22T02:41:41;5.87;;;1.70;;
79706;SDS011;69200;53.612;-2.416;2024-03-22T02:44:06;5.43;;;2.00;;
79706;SDS011;69200;53.612;-2.416;2024-03-22T02:46:31;10.07;;;1.67;;
79706;SDS011;69200;53.612;-2.416;2024-03-22T02:48:57;6.67;;;2.07;;
79706;SDS011;69200;53.612;-2.416;2024-03-22T02:51:22;6.70;;;2.03;;
79706;SDS011;69200;53.612;-2.416;2024-03-22T02:53:47;7.47;;;1.50;;
79706;SDS011;69200;53.612;-2.416;2024-03-22T02:56:12;8.25;;;1.80;;
79706;SDS011;69200;53.612;-2.416;2024-03-22T02:58:38;6.93;;;1.93;;
79706;SDS011;69200;53.612;-2.416;2024-03-22T03:01:03;4.33;;;1.20;;
79706;SDS011;69200;53.612;-2.416;2024-03-22T03:03:28;6.57;;;1.75;;
79706;SDS011;69200;53.612;-2.416;2024-03-22T03:05:53;9.13;;;1.67;;
79706;SDS011;69200;53.612;-2.416;2024-03-22T03:08:19;8.00;;;1.80;;
79706;SDS011;69200;53.612;-2.416;2024-03-22T03:10:44;7.10;;;1.80;;
79706;SDS011;69200;53.612;-2.416;2024-03-22T03:13:10;6.07;;;1.45;;
79706;SDS011;69200;53.612;-2.416;2024-03-22T03:15:35;13.37;;;1.93;;
79706;SDS011;69200;53.612;-2.416;2024-03-22T03:18:00;9.73;;;1.83;;
79706;SDS011;69200;53.612;-2.416;2024-03-22T03:20:26;19.37;;;2.47;;
79706;SDS011;69200;53.612;-2.416;2024-03-22T03:22:51;16.52;;;2.45;;
79706;SDS011;69200;53.612;-2.416;2024-03-22T03:25:17;15.90;;;2.03;;
79706;SDS011;69200;53.612;-2.416;2024-03-22T03:27:42;13.53;;;2.40;;
79706;SDS011;69200;53.612;-2.416;2024-03-22T03:30:07;25.40;;;2.50;;
79706;SDS011;69200;53.612;-2.416;2024-03-22T03:32:32;15.80;;;2.42;;
79706;SDS011;69200;53.612;-2.416;2024-03-22T03:34:58;17.30;;;2.23;;
79706;SDS011;69200;53.612;-2.416;2024-03-22T03:37:23;15.63;;;2.13;;
79706;SDS011;69200;53.612;-2.416;2024-03-22T03:39:48;12.57;;;2.03;;
79706;SDS011;69200;53.612;-2.416;2024-03-22T03:42:13;22.83;;;2.80;;
79706;SDS011;69200;53.612;-2.416;2024-03-22T03:44:39;17.67;;;2.70;;
79706;SDS011;69200;53.612;-2.416;2024-03-22T03:47:04;14.30;;;2.47;;
79706;SDS011;69200;53.612;-2.416;2024-03-22T03:49:29;16.20;;;2.33;;
79706;SDS011;69200;53.612;-2.416;2024-03-22T03:51:54;16.23;;;3.10;;
79706;SDS011;69200;53.612;-2.416;2024-03-22T03:54:19;7.47;;;1.70;;
79706;SDS011;69200;53.612;-2.416;2024-03-22T03:56:45;8.87;;;2.00;;
79706;SDS011;69200;53.612;-2.416;2024-03-22T03:59:10;18.97;;;2.70;;
79706;SDS011;69200;53.612;-2.416;2024-03-22T04:01:35;21.87;;;2.77;;
79706;SDS011;69200;53.612;-2.416;2024-03-22T04:04:01;18.48;;;2.78;;
79706;SDS011;69200;53.612;-2.416;2024-03-22T04:06:27;18.55;;;2.50;;
79706;SDS011;69200;53.612;-2.416;2024-03-22T04:08:52;17.17;;;2.10;;
79706;SDS011;69200;53.612;-2.416;2024-03-22T04:11:17;19.27;;;2.43;;
79706;SDS011;69200;53.612;-2.416;2024-03-22T04:13:42;18.90;;;2.13;;
79706;SDS011;69200;53.612;-2.416;2024-03-22T04:16:08;12.43;;;2.60;;
79706;SDS011;69200;53.612;-2.416;2024-03-22T04:18:33;9.80;;;2.63;;
79706;SDS011;69200;53.612;-2.416;2024-03-22T04:20:58;17.07;;;2.80;;
79706;SDS011;69200;53.612;-2.416;2024-03-22T04:23:24;18.63;;;2.42;;
79706;SDS011;69200;53.612;-2.416;2024-03-22T04:25:54;15.60;;;2.95;;
79706;SDS011;69200;53.612;-2.416;2024-03-22T04:28:19;16.58;;;2.80;;
79706;SDS011;69200;53.612;-2.416;2024-03-22T04:30:53;20.30;;;2.10;;
79706;SDS011;69200;53.612;-2.416;2024-03-22T04:33:18;32.90;;;3.42;;
79706;SDS011;69200;53.612;-2.416;2024-03-22T04:35:46;22.17;;;2.50;;
79706;SDS011;69200;53.612;-2.416;2024-03-22T04:38:12;19.70;;;2.60;;
79706;SDS011;69200;53.612;-2.416;2024-03-22T04:40:37;27.30;;;2.73;;
79706;SDS011;69200;53.612;-2.416;2024-03-22T04:43:02;14.43;;;2.90;;
79706;SDS011;69200;53.612;-2.416;2024-03-22T04:45:27;23.17;;;2.77;;
79706;SDS011;69200;53.612;-2.416;2024-03-22T04:47:52;21.10;;;2.97;;
79706;SDS011;69200;53.612;-2.416;2024-03-22T04:50:18;23.10;;;2.73;;
79706;SDS011;69200;53.612;-2.416;2024-03-22T04:52:43;15.47;;;2.73;;
79706;SDS011;69200;53.612;-2.416;2024-03-22T04:55:08;18.23;;;2.13;;
79706;SDS011;69200;53.612;-2.416;2024-03-22T04:57:33;30.00;;;3.50;;
79706;SDS011;69200;53.612;-2.416;2024-03-22T04:59:58;16.77;;;3.00;;
79706;SDS011;69200;53.612;-2.416;2024-03-22T05:02:24;19.13;;;2.60;;
79706;SDS011;69200;53.612;-2.416;2024-03-22T05:04:49;13.80;;;2.15;;
79706;SDS011;69200;53.612;-2.416;2024-03-22T05:07:14;27.77;;;3.60;;
79706;SDS011;69200;53.612;-2.416;2024-03-22T05:09:39;20.43;;;2.10;;
79706;SDS011;69200;53.612;-2.416;2024-03-22T05:12:05;12.60;;;2.30;;
79706;SDS011;69200;53.612;-2.416;2024-03-22T05:14:30;13.88;;;4.25;;
79706;SDS011;69200;53.612;-2.416;2024-03-22T05:16:55;14.63;;;1.90;;
79706;SDS011;69200;53.612;-2.416;2024-03-22T05:19:20;21.83;;;2.77;;
79706;SDS011;69200;53.612;-2.416;2024-03-22T05:21:46;17.70;;;2.00;;
79706;SDS011;69200;53.612;-2.416;2024-03-22T05:24:11;17.97;;;2.90;;
79706;SDS011;69200;53.612;-2.416;2024-03-22T05:26:36;15.50;;;2.87;;
79706;SDS011;69200;53.612;-2.416;2024-03-22T05:29:02;20.60;;;2.97;;
79706;SDS011;69200;53.612;-2.416;2024-03-22T05:31:27;22.35;;;3.25;;
79706;SDS011;69200;53.612;-2.416;2024-03-22T05:33:53;18.15;;;3.83;;
79706;SDS011;69200;53.612;-2.416;2024-03-22T05:36:18;9.80;;;2.43;;
79706;SDS011;69200;53.612;-2.416;2024-03-22T05:38:43;15.30;;;2.83;;
79706;SDS011;69200;53.612;-2.416;2024-03-22T05:41:09;22.05;;;3.65;;
79706;SDS011;69200;53.612;-2.416;2024-03-22T05:43:34;9.80;;;2.70;;
79706;SDS011;69200;53.612;-2.416;2024-03-22T05:45:59;22.53;;;3.07;;
79706;SDS011;69200;53.612;-2.416;2024-03-22T05:48:25;15.17;;;2.30;;
79706;SDS011;69200;53.612;-2.416;2024-03-22T05:50:50;19.35;;;2.25;;
79706;SDS011;69200;53.612;-2.416;2024-03-22T05:53:17;22.40;;;4.05;;
79706;SDS011;69200;53.612;-2.416;2024-03-22T05:55:42;18.43;;;3.23;;
79706;SDS011;69200;53.612;-2.416;2024-03-22T05:58:08;15.73;;;2.43;;
79706;SDS011;69200;53.612;-2.416;2024-03-22T06:00:34;12.63;;;1.75;;
79706;SDS011;69200;53.612;-2.416;2024-03-22T06:02:59;11.60;;;2.33;;
79706;SDS011;69200;53.612;-2.416;2024-03-22T06:05:24;15.57;;;1.97;;
79706;SDS011;69200;53.612;-2.416;2024-03-22T06:07:50;19.17;;;3.63;;
79706;SDS011;69200;53.612;-2.416;2024-03-22T06:10:15;15.60;;;1.80;;
79706;SDS011;69200;53.612;-2.416;2024-03-22T06:12:41;10.68;;;2.42;;
79706;SDS011;69200;53.612;-2.416;2024-03-22T06:15:09;24.83;;;3.20;;
79706;SDS011;69200;53.612;-2.416;2024-03-22T06:17:34;21.70;;;2.55;;
79706;SDS011;69200;53.612;-2.416;2024-03-22T06:20:00;14.67;;;1.67;;
79706;SDS011;69200;53.612;-2.416;2024-03-22T06:22:25;13.13;;;1.83;;
79706;SDS011;69200;53.612;-2.416;2024-03-22T06:24:50;21.53;;;2.50;;
79706;SDS011;69200;53.612;-2.416;2024-03-22T06:27:16;16.37;;;2.17;;
79706;SDS011;69200;53.612;-2.416;2024-03-22T06:29:41;18.17;;;2.03;;
79706;SDS011;69200;53.612;-2.416;2024-03-22T06:32:06;13.93;;;1.70;;
79706;SDS011;69200;53.612;-2.416;2024-03-22T06:34:31;24.70;;;3.30;;
79706;SDS011;69200;53.612;-2.416;2024-03-22T06:36:56;23.87;;;2.87;;
79706;SDS011;69200;53.612;-2.416;2024-03-22T06:39:22;18.77;;;2.97;;
79706;SDS011;69200;53.612;-2.416;2024-03-22T06:41:47;18.63;;;3.13;;
79706;SDS011;69200;53.612;-2.416;2024-03-22T06:44:12;9.20;;;2.00;;
79706;SDS011;69200;53.612;-2.416;2024-03-22T06:46:39;15.88;;;2.30;;
79706;SDS011;69200;53.612;-2.416;2024-03-22T06:49:04;24.20;;;3.03;;
79706;SDS011;69200;53.612;-2.416;2024-03-22T06:51:29;14.90;;;2.23;;
79706;SDS011;69200;53.612;-2.416;2024-03-22T06:53:55;28.42;;;3.75;;
79706;SDS011;69200;53.612;-2.416;2024-03-22T06:56:20;23.70;;;2.60;;
79706;SDS011;69200;53.612;-2.416;2024-03-22T06:58:46;23.07;;;2.90;;
79706;SDS011;69200;53.612;-2.416;2024-03-22T07:01:11;18.10;;;2.35;;
79706;SDS011;69200;53.612;-2.416;2024-03-22T07:03:36;18.30;;;1.77;;
79706;SDS011;69200;53.612;-2.416;2024-03-22T07:06:02;13.77;;;1.95;;
79706;SDS011;69200;53.612;-2.416;2024-03-22T07:08:28;22.58;;;3.28;;
79706;SDS011;69200;53.612;-2.416;2024-03-22T07:10:53;19.63;;;2.27;;
79706;SDS011;69200;53.612;-2.416;2024-03-22T07:13:19;16.90;;;2.25;;
79706;SDS011;69200;53.612;-2.416;2024-03-22T07:15:45;18.75;;;2.28;;
79706;SDS011;69200;53.612;-2.416;2024-03-22T07:18:12;19.20;;;2.92;;
79706;SDS011;69200;53.612;-2.416;2024-03-22T07:20:37;18.77;;;2.77;;
79706;SDS011;69200;53.612;-2.416;2024-03-22T07:23:03;13.67;;;2.33;;
79706;SDS011;69200;53.612;-2.416;2024-03-22T07:25:29;18.42;;;2.58;;
79706;SDS011;69200;53.612;-2.416;2024-03-22T07:27:54;15.43;;;2.10;;
79706;SDS011;69200;53.612;-2.416;2024-03-22T07:30:19;10.17;;;1.67;;
79706;SDS011;69200;53.612;-2.416;2024-03-22T07:32:46;21.98;;;3.00;;
79706;SDS011;69200;53.612;-2.416;2024-03-22T07:35:12;15.13;;;1.67;;
79706;SDS011;69200;53.612;-2.416;2024-03-22T07:37:37;11.47;;;1.43;;
79706;SDS011;69200;53.612;-2.416;2024-03-22T07:40:03;12.00;;;1.80;;
79706;SDS011;69200;53.612;-2.416;2024-03-22T07:42:28;10.32;;;2.00;;
79706;SDS011;69200;53.612;-2.416;2024-03-22T07:44:53;19.17;;;2.23;;
79706;SDS011;69200;53.612;-2.416;2024-03-22T07:47:18;14.13;;;2.27;;
79706;SDS011;69200;53.612;-2.416;2024-03-22T07:49:44;15.88;;;2.55;;
79706;SDS011;69200;53.612;-2.416;2024-03-22T07:52:10;11.47;;;2.20;;
79706;SDS011;69200;53.612;-2.416;2024-03-22T07:54:35;13.33;;;2.10;;
79706;SDS011;69200;53.612;-2.416;2024-03-22T07:57:00;13.75;;;2.05;;
79706;SDS011;69200;53.612;-2.416;2024-03-22T07:59:26;16.80;;;2.07;;
79706;SDS011;69200;53.612;-2.416;2024-03-22T08:01:51;12.03;;;1.83;;
79706;SDS011;69200;53.612;-2.416;2024-03-22T08:04:16;15.90;;;1.98;;
79706;SDS011;69200;53.612;-2.416;2024-03-22T08:06:42;12.80;;;2.60;;
79706;SDS011;69200;53.612;-2.416;2024-03-22T08:09:07;15.33;;;2.80;;
79706;SDS011;69200;53.612;-2.416;2024-03-22T08:11:32;29.77;;;2.72;;
79706;SDS011;69200;53.612;-2.416;2024-03-22T08:13:58;11.73;;;2.10;;
79706;SDS011;69200;53.612;-2.416;2024-03-22T08:16:28;7.72;;;1.30;;
79706;SDS011;69200;53.612;-2.416;2024-03-22T08:18:53;10.27;;;2.00;;
79706;SDS011;69200;53.612;-2.416;2024-03-22T08:21:18;13.53;;;2.03;;
79706;SDS011;69200;53.612;-2.416;2024-03-22T08:23:44;10.32;;;1.65;;
79706;SDS011;69200;53.612;-2.416;2024-03-22T08:26:09;17.80;;;2.53;;
79706;SDS011;69200;53.612;-2.416;2024-03-22T08:28:34;12.97;;;1.70;;
79706;SDS011;69200;53.612;-2.416;2024-03-22T08:31:03;13.80;;;1.93;;
79706;SDS011;69200;53.612;-2.416;2024-03-22T08:33:28;13.90;;;2.20;;
79706;SDS011;69200;53.612;-2.416;2024-03-22T08:35:53;12.13;;;1.47;;
79706;SDS011;69200;53.612;-2.416;2024-03-22T08:38:18;17.93;;;1.70;;
79706;SDS011;69200;53.612;-2.416;2024-03-22T08:40:44;14.10;;;2.13;;
79706;SDS011;69200;53.612;-2.416;2024-03-22T08:43:09;14.87;;;1.33;;
79706;SDS011;69200;53.612;-2.416;2024-03-22T08:45:34;10.97;;;1.80;;
79706;SDS011;69200;53.612;-2.416;2024-03-22T08:48:00;17.02;;;1.70;;
79706;SDS011;69200;53.612;-2.416;2024-03-22T08:50:25;15.10;;;1.50;;
79706;SDS011;69200;53.612;-2.416;2024-03-22T08:52:51;16.57;;;2.77;;
79706;SDS011;69200;53.612;-2.416;2024-03-22T08:55:16;16.88;;;1.83;;
79706;SDS011;69200;53.612;-2.416;2024-03-22T08:57:42;13.80;;;2.53;;
79706;SDS011;69200;53.612;-2.416;2024-03-22T09:00:07;7.07;;;1.65;;
79706;SDS011;69200;53.612;-2.416;2024-03-22T09:02:33;19.67;;;2.28;;
79706;SDS011;69200;53.612;-2.416;2024-03-22T09:04:59;8.98;;;1.40;;
79706;SDS011;69200;53.612;-2.416;2024-03-22T09:07:24;16.40;;;2.33;;
79706;SDS011;69200;53.612;-2.416;2024-03-22T09:09:49;14.00;;;1.30;;
79706;SDS011;69200;53.612;-2.416;2024-03-22T09:12:14;4.80;;;0.87;;
79706;SDS011;69200;53.612;-2.416;2024-03-22T09:14:40;8.60;;;1.73;;
79706;SDS011;69200;53.612;-2.416;2024-03-22T09:17:05;10.17;;;1.73;;
79706;SDS011;69200;53.612;-2.416;2024-03-22T09:19:30;6.83;;;1.37;;
79706;SDS011;69200;53.612;-2.416;2024-03-22T09:21:56;9.95;;;1.17;;
79706;SDS011;69200;53.612;-2.416;2024-03-22T09:24:22;11.43;;;1.97;;
79706;SDS011;69200;53.612;-2.416;2024-03-22T09:26:47;12.30;;;1.37;;
79706;SDS011;69200;53.612;-2.416;2024-03-22T09:29:15;4.00;;;0.70;;
79706;SDS011;69200;53.612;-2.416;2024-03-22T09:31:40;13.55;;;1.98;;
79706;SDS011;69200;53.612;-2.416;2024-03-22T09:34:05;9.20;;;1.20;;
79706;SDS011;69200;53.612;-2.416;2024-03-22T09:36:31;12.13;;;1.70;;
79706;SDS011;69200;53.612;-2.416;2024-03-22T09:38:59;6.03;;;1.15;;
79706;SDS011;69200;53.612;-2.416;2024-03-22T09:41:24;5.00;;;0.93;;
79706;SDS011;69200;53.612;-2.416;2024-03-22T09:43:51;7.68;;;1.15;;
79706;SDS011;69200;53.612;-2.416;2024-03-22T09:46:16;7.97;;;1.38;;
79706;SDS011;69200;53.612;-2.416;2024-03-22T09:48:43;8.13;;;1.23;;
79706;SDS011;69200;53.612;-2.416;2024-03-22T09:51:08;10.35;;;2.15;;
79706;SDS011;69200;53.612;-2.416;2024-03-22T09:53:34;10.07;;;1.63;;
79706;SDS011;69200;53.612;-2.416;2024-03-22T09:56:00;6.13;;;1.17;;
79706;SDS011;69200;53.612;-2.416;2024-03-22T09:58:26;10.90;;;1.65;;
79706;SDS011;69200;53.612;-2.416;2024-03-22T10:00:52;12.80;;;1.38;;
79706;SDS011;69200;53.612;-2.416;2024-03-22T10:03:18;9.13;;;1.27;;
79706;SDS011;69200;53.612;-2.416;2024-03-22T10:05:43;12.20;;;1.30;;
79706;SDS011;69200;53.612;-2.416;2024-03-22T10:08:08;6.53;;;1.63;;
79706;SDS011;69200;53.612;-2.416;2024-03-22T10:10:34;7.73;;;2.03;;
79706;SDS011;69200;53.612;-2.416;2024-03-22T10:13:05;10.25;;;1.92;;
79706;SDS011;69200;53.612;-2.416;2024-03-22T10:15:30;6.50;;;1.33;;
79706;SDS011;69200;53.612;-2.416;2024-03-22T10:17:59;9.10;;;1.47;;
79706;SDS011;69200;53.612;-2.416;2024-03-22T10:20:24;10.27;;;1.40;;
79706;SDS011;69200;53.612;-2.416;2024-03-22T10:22:55;5.85;;;1.30;;
79706;SDS011;69200;53.612;-2.416;2024-03-22T10:25:23;12.45;;;1.85;;
79706;SDS011;69200;53.612;-2.416;2024-03-22T10:27:48;9.10;;;1.45;;
79706;SDS011;69200;53.612;-2.416;2024-03-22T10:30:15;5.23;;;1.73;;
79706;SDS011;69200;53.612;-2.416;2024-03-22T10:32:41;12.68;;;2.17;;
79706;SDS011;69200;53.612;-2.416;2024-03-22T10:35:07;6.07;;;1.15;;
79706;SDS011;69200;53.612;-2.416;2024-03-22T10:37:33;12.02;;;1.55;;
79706;SDS011;69200;53.612;-2.416;2024-03-22T10:40:00;9.07;;;1.40;;
79706;SDS011;69200;53.612;-2.416;2024-03-22T10:42:26;10.75;;;1.65;;
79706;SDS011;69200;53.612;-2.416;2024-03-22T10:44:51;6.47;;;1.20;;
79706;SDS011;69200;53.612;-2.416;2024-03-22T10:47:16;15.90;;;1.23;;
79706;SDS011;69200;53.612;-2.416;2024-03-22T10:49:43;6.85;;;1.17;;
79706;SDS011;69200;53.612;-2.416;2024-03-22T10:52:10;6.60;;;1.08;;
79706;SDS011;69200;53.612;-2.416;2024-03-22T10:54:37;7.40;;;1.65;;
79706;SDS011;69200;53.612;-2.416;2024-03-22T10:57:04;8.80;;;2.15;;
79706;SDS011;69200;53.612;-2.416;2024-03-22T10:59:34;11.65;;;1.63;;
79706;SDS011;69200;53.612;-2.416;2024-03-22T11:02:03;12.95;;;1.90;;
79706;SDS011;69200;53.612;-2.416;2024-03-22T11:04:29;9.25;;;1.40;;
79706;SDS011;69200;53.612;-2.416;2024-03-22T11:06:56;11.45;;;1.55;;
79706;SDS011;69200;53.612;-2.416;2024-03-22T11:09:22;8.70;;;1.17;;
79706;SDS011;69200;53.612;-2.416;2024-03-22T11:11:48;4.95;;;0.80;;
79706;SDS011;69200;53.612;-2.416;2024-03-22T11:14:13;6.10;;;1.08;;
79706;SDS011;69200;53.612;-2.416;2024-03-22T11:16:38;7.10;;;1.40;;
79706;SDS011;69200;53.612;-2.416;2024-03-22T11:19:04;11.40;;;1.13;;
79706;SDS011;69200;53.612;-2.416;2024-03-22T11:21:32;11.27;;;2.03;;
79706;SDS011;69200;53.612;-2.416;2024-03-22T11:23:58;7.40;;;1.27;;
79706;SDS011;69200;53.612;-2.416;2024-03-22T11:26:25;6.75;;;1.25;;
79706;SDS011;69200;53.612;-2.416;2024-03-22T11:28:50;6.03;;;1.33;;
79706;SDS011;69200;53.612;-2.416;2024-03-22T11:31:16;5.87;;;1.67;;
79706;SDS011;69200;53.612;-2.416;2024-03-22T11:33:41;10.07;;;1.63;;
79706;SDS011;69200;53.612;-2.416;2024-03-22T11:36:07;2.80;;;0.85;;
79706;SDS011;69200;53.612;-2.416;2024-03-22T11:38:33;12.18;;;1.60;;
79706;SDS011;69200;53.612;-2.416;2024-03-22T11:40:59;10.90;;;1.33;;
79706;SDS011;69200;53.612;-2.416;2024-03-22T11:43:25;7.75;;;1.55;;
79706;SDS011;69200;53.612;-2.416;2024-03-22T11:45:52;11.68;;;1.40;;
79706;SDS011;69200;53.612;-2.416;2024-03-22T11:48:17;8.77;;;1.20;;
79706;SDS011;69200;53.612;-2.416;2024-03-22T11:50:43;6.83;;;0.90;;
79706;SDS011;69200;53.612;-2.416;2024-03-22T11:53:08;8.20;;;0.90;;
79706;SDS011;69200;53.612;-2.416;2024-03-22T11:55:35;7.10;;;1.33;;
79706;SDS011;69200;53.612;-2.416;2024-03-22T11:58:00;7.05;;;1.42;;
79706;SDS011;69200;53.612;-2.416;2024-03-22T12:00:26;12.60;;;1.63;;
79706;SDS011;69200;53.612;-2.416;2024-03-22T12:02:52;10.07;;;1.55;;
79706;SDS011;69200;53.612;-2.416;2024-03-22T12:05:18;6.97;;;1.27;;
79706;SDS011;69200;53.612;-2.416;2024-03-22T12:07:46;11.52;;;2.22;;
79706;SDS011;69200;53.612;-2.416;2024-03-22T12:10:11;9.40;;;1.88;;
79706;SDS011;69200;53.612;-2.416;2024-03-22T12:12:37;9.82;;;2.03;;
79706;SDS011;69200;53.612;-2.416;2024-03-22T12:15:02;7.80;;;1.23;;
79706;SDS011;69200;53.612;-2.416;2024-03-22T12:17:28;9.15;;;1.33;;
79706;SDS011;69200;53.612;-2.416;2024-03-22T12:19:53;5.67;;;1.00;;
79706;SDS011;69200;53.612;-2.416;2024-03-22T12:22:18;14.73;;;1.60;;
79706;SDS011;69200;53.612;-2.416;2024-03-22T12:24:44;13.70;;;1.98;;
79706;SDS011;69200;53.612;-2.416;2024-03-22T12:27:09;11.43;;;1.08;;
79706;SDS011;69200;53.612;-2.416;2024-03-22T12:29:35;9.67;;;1.20;;
79706;SDS011;69200;53.612;-2.416;2024-03-22T12:32:00;8.93;;;1.50;;
79706;SDS011;69200;53.612;-2.416;2024-03-22T12:34:27;8.18;;;1.67;;
79706;SDS011;69200;53.612;-2.416;2024-03-22T12:36:52;10.50;;;1.90;;
79706;SDS011;69200;53.612;-2.416;2024-03-22T12:39:17;14.57;;;2.53;;
79706;SDS011;69200;53.612;-2.416;2024-03-22T12:41:42;9.67;;;1.53;;
79706;SDS011;69200;53.612;-2.416;2024-03-22T12:44:08;11.85;;;2.53;;
79706;SDS011;69200;53.612;-2.416;2024-03-22T12:46:33;10.17;;;2.30;;
79706;SDS011;69200;53.612;-2.416;2024-03-22T12:48:58;13.80;;;1.90;;
79706;SDS011;69200;53.612;-2.416;2024-03-22T12:51:23;5.87;;;1.07;;
79706;SDS011;69200;53.612;-2.416;2024-03-22T12:53:49;7.55;;;1.25;;
79706;SDS011;69200;53.612;-2.416;2024-03-22T12:56:14;8.23;;;1.90;;
79706;SDS011;69200;53.612;-2.416;2024-03-22T12:58:39;6.90;;;1.20;;
79706;SDS011;69200;53.612;-2.416;2024-03-22T13:01:05;5.07;;;1.40;;
79706;SDS011;69200;53.612;-2.416;2024-03-22T13:03:31;7.28;;;1.00;;
79706;SDS011;69200;53.612;-2.416;2024-03-22T13:05:56;8.68;;;1.23;;
79706;SDS011;69200;53.612;-2.416;2024-03-22T13:08:21;9.17;;;1.40;;
79706;SDS011;69200;53.612;-2.416;2024-03-22T13:10:47;9.50;;;1.43;;
79706;SDS011;69200;53.612;-2.416;2024-03-22T13:13:13;9.60;;;1.65;;
79706;SDS011;69200;53.612;-2.416;2024-03-22T13:15:40;7.95;;;1.92;;
79706;SDS011;69200;53.612;-2.416;2024-03-22T13:18:06;12.93;;;1.63;;
79706;SDS011;69200;53.612;-2.416;2024-03-22T13:20:31;11.70;;;1.33;;
79706;SDS011;69200;53.612;-2.416;2024-03-22T13:22:57;14.65;;;1.73;;
79706;SDS011;69200;53.612;-2.416;2024-03-22T13:25:22;17.47;;;1.87;;
79706;SDS011;69200;53.612;-2.416;2024-03-22T13:27:47;10.57;;;1.40;;
79706;SDS011;69200;53.612;-2.416;2024-03-22T13:30:12;6.77;;;1.20;;
79706;SDS011;69200;53.612;-2.416;2024-03-22T13:32:39;6.72;;;1.38;;
79706;SDS011;69200;53.612;-2.416;2024-03-22T13:35:05;9.98;;;2.00;;
79706;SDS011;69200;53.612;-2.416;2024-03-22T13:37:30;12.63;;;1.48;;
79706;SDS011;69200;53.612;-2.416;2024-03-22T13:39:55;6.97;;;1.25;;
79706;SDS011;69200;53.612;-2.416;2024-03-22T13:42:21;5.00;;;1.10;;
79706;SDS011;69200;53.612;-2.416;2024-03-22T13:44:46;6.40;;;1.33;;
79706;SDS011;69200;53.612;-2.416;2024-03-22T13:47:11;10.10;;;1.23;;
79706;SDS011;69200;53.612;-2.416;2024-03-22T13:49:37;8.05;;;1.90;;
79706;SDS011;69200;53.612;-2.416;2024-03-22T13:52:05;16.35;;;2.05;;
79706;SDS011;69200;53.612;-2.416;2024-03-22T13:54:30;3.83;;;1.17;;
79706;SDS011;69200;53.612;-2.416;2024-03-22T13:56:55;13.67;;;1.53;;
79706;SDS011;69200;53.612;-2.416;2024-03-22T13:59:21;9.13;;;1.70;;
79706;SDS011;69200;53.612;-2.416;2024-03-22T14:01:46;13.23;;;1.77;;
79706;SDS011;69200;53.612;-2.416;2024-03-22T14:04:12;13.95;;;1.75;;
79706;SDS011;69200;53.612;-2.416;2024-03-22T14:06:37;7.97;;;1.87;;
79706;SDS011;69200;53.612;-2.416;2024-03-22T14:09:03;6.03;;;1.30;;
79706;SDS011;69200;53.612;-2.416;2024-03-22T14:11:29;11.13;;;1.63;;
79706;SDS011;69200;53.612;-2.416;2024-03-22T14:13:56;7.40;;;1.33;;
79706;SDS011;69200;53.612;-2.416;2024-03-22T14:16:21;13.00;;;2.15;;
79706;SDS011;69200;53.612;-2.416;2024-03-22T14:18:46;10.37;;;1.13;;